Portada
METAR-TAF:

METAR-TAF

Aeropuertos :

Boonville, Misuri, Estados Unidos

latitud: 38-56-48N, longitud: 092-40-58W, altitud: 218 m

Observación

El informe se hizo hace 24 minutos, a las 13:35 UTC
Viento 12 kt del este-sureste
Temperatura -2°C
Humedad 69%
Presión 1033 hPa
Visibilidad: 16.1 km
Cielo nuboso a una altura de 6500 ft
Cielo cubierto a una altura de 7000 ft
desconocido

METAR: KVER 171335Z AUTO 12012KT 10SM UP BKN065 OVC070 M02/M07 A3050 RMK AO2 T10251071

Hora: 07:59 (13:59 UTC)


TAF: falta

Observaciones y pronósticos meteorológicos de más de 4000 aeropuertos (mensajes METAR y TAF).

Los puntos amarillos y rojos representan las estaciones disponibles.

Ponga el ratón en el punto deseado para ver el nombre de la estación.

Haga clic para ver las observaciones y los pronósticos meteorológicos.

Para cambiar el mapa : haga clic en los botones verdes con una cruz de color negro para hacer un zoom, en el botón verde con un guión para alejar o en las flechas verdes para mapas adyacentes.


METAR-TAF: